sensor_id;sensor_type;location;lat;lon;timestamp;P1;durP1;ratioP1;P2;durP2;ratioP2
8831;SDS011;4452;50.756;4.472;2023-05-18T00:02:21;19.77;;;5.38;;
8831;SDS011;4452;50.756;4.472;2023-05-18T00:04:47;19.55;;;5.18;;
8831;SDS011;4452;50.756;4.472;2023-05-18T00:07:13;23.60;;;5.70;;
8831;SDS011;4452;50.756;4.472;2023-05-18T00:09:39;19.75;;;5.90;;
8831;SDS011;4452;50.756;4.472;2023-05-18T00:12:05;15.88;;;5.60;;
8831;SDS011;4452;50.756;4.472;2023-05-18T00:14:33;14.25;;;6.30;;
8831;SDS011;4452;50.756;4.472;2023-05-18T00:16:58;11.90;;;5.50;;
8831;SDS011;4452;50.756;4.472;2023-05-18T00:19:26;15.27;;;5.45;;
8831;SDS011;4452;50.756;4.472;2023-05-18T00:21:53;14.45;;;4.95;;
8831;SDS011;4452;50.756;4.472;2023-05-18T00:24:22;16.95;;;5.20;;
8831;SDS011;4452;50.756;4.472;2023-05-18T00:26:48;17.20;;;5.57;;
8831;SDS011;4452;50.756;4.472;2023-05-18T00:29:14;18.42;;;6.00;;
8831;SDS011;4452;50.756;4.472;2023-05-18T00:31:40;22.05;;;5.40;;
8831;SDS011;4452;50.756;4.472;2023-05-18T00:34:07;10.43;;;4.47;;
8831;SDS011;4452;50.756;4.472;2023-05-18T00:36:33;9.77;;;4.68;;
8831;SDS011;4452;50.756;4.472;2023-05-18T00:39:00;14.88;;;5.20;;
8831;SDS011;4452;50.756;4.472;2023-05-18T00:41:26;12.60;;;5.20;;
8831;SDS011;4452;50.756;4.472;2023-05-18T00:43:52;18.30;;;5.72;;
8831;SDS011;4452;50.756;4.472;2023-05-18T00:46:18;13.43;;;5.65;;
8831;SDS011;4452;50.756;4.472;2023-05-18T00:48:45;11.48;;;4.68;;
8831;SDS011;4452;50.756;4.472;2023-05-18T00:51:11;14.73;;;5.20;;
8831;SDS011;4452;50.756;4.472;2023-05-18T00:53:37;12.48;;;4.90;;
8831;SDS011;4452;50.756;4.472;2023-05-18T00:56:03;17.02;;;5.15;;
8831;SDS011;4452;50.756;4.472;2023-05-18T00:58:29;16.73;;;5.20;;
8831;SDS011;4452;50.756;4.472;2023-05-18T01:00:55;21.20;;;5.20;;
8831;SDS011;4452;50.756;4.472;2023-05-18T01:03:21;14.85;;;5.57;;
8831;SDS011;4452;50.756;4.472;2023-05-18T01:05:47;10.55;;;5.00;;
8831;SDS011;4452;50.756;4.472;2023-05-18T01:08:20;17.03;;;5.40;;
8831;SDS011;4452;50.756;4.472;2023-05-18T01:10:52;12.65;;;5.20;;
8831;SDS011;4452;50.756;4.472;2023-05-18T01:13:34;12.38;;;4.85;;
8831;SDS011;4452;50.756;4.472;2023-05-18T01:16:14;18.67;;;4.97;;
8831;SDS011;4452;50.756;4.472;2023-05-18T01:18:46;10.82;;;5.40;;
8831;SDS011;4452;50.756;4.472;2023-05-18T01:24:03;19.30;;;5.95;;
8831;SDS011;4452;50.756;4.472;2023-05-18T01:26:50;18.27;;;6.10;;
8831;SDS011;4452;50.756;4.472;2023-05-18T01:29:21;13.40;;;5.10;;
8831;SDS011;4452;50.756;4.472;2023-05-18T01:31:51;14.40;;;5.35;;
8831;SDS011;4452;50.756;4.472;2023-05-18T01:34:16;31.83;;;5.63;;
8831;SDS011;4452;50.756;4.472;2023-05-18T01:36:42;13.70;;;5.88;;
8831;SDS011;4452;50.756;4.472;2023-05-18T01:39:08;10.13;;;5.57;;
8831;SDS011;4452;50.756;4.472;2023-05-18T01:41:34;19.77;;;5.80;;
8831;SDS011;4452;50.756;4.472;2023-05-18T01:44:19;15.30;;;6.05;;
8831;SDS011;4452;50.756;4.472;2023-05-18T01:49:47;18.73;;;5.88;;
8831;SDS011;4452;50.756;4.472;2023-05-18T01:52:31;22.88;;;6.07;;
8831;SDS011;4452;50.756;4.472;2023-05-18T01:55:02;8.32;;;5.35;;
8831;SDS011;4452;50.756;4.472;2023-05-18T01:57:30;16.45;;;5.80;;
8831;SDS011;4452;50.756;4.472;2023-05-18T01:59:59;15.95;;;6.15;;
8831;SDS011;4452;50.756;4.472;2023-05-18T02:02:26;24.65;;;6.75;;
8831;SDS011;4452;50.756;4.472;2023-05-18T02:04:52;16.45;;;6.13;;
8831;SDS011;4452;50.756;4.472;2023-05-18T02:07:18;14.95;;;6.28;;
8831;SDS011;4452;50.756;4.472;2023-05-18T02:09:44;23.13;;;6.47;;
8831;SDS011;4452;50.756;4.472;2023-05-18T02:12:10;16.48;;;5.65;;
8831;SDS011;4452;50.756;4.472;2023-05-18T02:14:36;11.02;;;5.43;;
8831;SDS011;4452;50.756;4.472;2023-05-18T02:17:02;13.48;;;6.32;;
8831;SDS011;4452;50.756;4.472;2023-05-18T02:19:28;18.60;;;6.38;;
8831;SDS011;4452;50.756;4.472;2023-05-18T02:21:56;9.10;;;5.43;;
8831;SDS011;4452;50.756;4.472;2023-05-18T02:24:22;11.05;;;5.97;;
8831;SDS011;4452;50.756;4.472;2023-05-18T02:26:49;14.48;;;6.30;;
8831;SDS011;4452;50.756;4.472;2023-05-18T02:29:15;21.10;;;6.40;;
8831;SDS011;4452;50.756;4.472;2023-05-18T02:31:41;16.33;;;6.47;;
8831;SDS011;4452;50.756;4.472;2023-05-18T02:34:07;23.83;;;5.70;;
8831;SDS011;4452;50.756;4.472;2023-05-18T02:36:33;16.20;;;6.10;;
8831;SDS011;4452;50.756;4.472;2023-05-18T02:39:07;19.33;;;6.65;;
8831;SDS011;4452;50.756;4.472;2023-05-18T02:41:34;16.02;;;6.40;;
8831;SDS011;4452;50.756;4.472;2023-05-18T02:44:00;18.77;;;6.53;;
8831;SDS011;4452;50.756;4.472;2023-05-18T02:46:29;15.40;;;6.10;;
8831;SDS011;4452;50.756;4.472;2023-05-18T02:48:55;18.30;;;6.53;;
8831;SDS011;4452;50.756;4.472;2023-05-18T02:51:21;15.88;;;6.13;;
8831;SDS011;4452;50.756;4.472;2023-05-18T02:53:47;16.42;;;6.70;;
8831;SDS011;4452;50.756;4.472;2023-05-18T02:56:13;20.20;;;6.15;;
8831;SDS011;4452;50.756;4.472;2023-05-18T02:58:39;16.85;;;6.50;;
8831;SDS011;4452;50.756;4.472;2023-05-18T03:01:07;15.63;;;6.75;;
8831;SDS011;4452;50.756;4.472;2023-05-18T03:03:36;22.25;;;6.57;;
8831;SDS011;4452;50.756;4.472;2023-05-18T03:06:02;20.27;;;7.05;;
8831;SDS011;4452;50.756;4.472;2023-05-18T03:08:32;21.27;;;6.53;;
8831;SDS011;4452;50.756;4.472;2023-05-18T03:10:58;15.25;;;6.65;;
8831;SDS011;4452;50.756;4.472;2023-05-18T03:13:23;15.38;;;6.57;;
8831;SDS011;4452;50.756;4.472;2023-05-18T03:15:49;18.60;;;6.68;;
8831;SDS011;4452;50.756;4.472;2023-05-18T03:18:16;16.10;;;6.85;;
8831;SDS011;4452;50.756;4.472;2023-05-18T03:20:43;18.17;;;6.78;;
8831;SDS011;4452;50.756;4.472;2023-05-18T03:23:09;14.98;;;6.25;;
8831;SDS011;4452;50.756;4.472;2023-05-18T03:25:35;19.98;;;7.28;;
8831;SDS011;4452;50.756;4.472;2023-05-18T03:28:04;16.88;;;7.28;;
8831;SDS011;4452;50.756;4.472;2023-05-18T03:30:33;18.33;;;7.78;;
8831;SDS011;4452;50.756;4.472;2023-05-18T03:32:59;17.90;;;6.85;;
8831;SDS011;4452;50.756;4.472;2023-05-18T03:35:26;24.67;;;7.18;;
8831;SDS011;4452;50.756;4.472;2023-05-18T03:37:51;20.20;;;6.30;;
8831;SDS011;4452;50.756;4.472;2023-05-18T03:40:17;21.77;;;7.63;;
8831;SDS011;4452;50.756;4.472;2023-05-18T03:42:44;16.95;;;6.90;;
8831;SDS011;4452;50.756;4.472;2023-05-18T03:45:10;19.45;;;7.78;;
8831;SDS011;4452;50.756;4.472;2023-05-18T03:47:36;19.00;;;7.13;;
8831;SDS011;4452;50.756;4.472;2023-05-18T03:50:03;19.40;;;7.32;;
8831;SDS011;4452;50.756;4.472;2023-05-18T03:52:33;18.00;;;7.53;;
8831;SDS011;4452;50.756;4.472;2023-05-18T03:54:59;24.30;;;7.40;;
8831;SDS011;4452;50.756;4.472;2023-05-18T03:57:25;51.28;;;8.20;;
8831;SDS011;4452;50.756;4.472;2023-05-18T03:59:52;16.52;;;7.30;;
8831;SDS011;4452;50.756;4.472;2023-05-18T04:02:18;64.25;;;9.98;;
8831;SDS011;4452;50.756;4.472;2023-05-18T04:04:44;86.20;;;10.43;;
8831;SDS011;4452;50.756;4.472;2023-05-18T04:07:14;28.98;;;7.68;;
8831;SDS011;4452;50.756;4.472;2023-05-18T04:09:40;15.40;;;7.47;;
8831;SDS011;4452;50.756;4.472;2023-05-18T04:12:06;19.48;;;7.80;;
8831;SDS011;4452;50.756;4.472;2023-05-18T04:14:32;18.83;;;7.35;;
8831;SDS011;4452;50.756;4.472;2023-05-18T04:16:59;18.52;;;7.45;;
8831;SDS011;4452;50.756;4.472;2023-05-18T04:19:31;16.00;;;7.35;;
8831;SDS011;4452;50.756;4.472;2023-05-18T04:22:00;21.90;;;7.28;;
8831;SDS011;4452;50.756;4.472;2023-05-18T04:24:30;21.75;;;8.07;;
8831;SDS011;4452;50.756;4.472;2023-05-18T04:27:00;15.23;;;7.30;;
8831;SDS011;4452;50.756;4.472;2023-05-18T04:29:27;24.27;;;7.82;;
8831;SDS011;4452;50.756;4.472;2023-05-18T04:31:56;17.67;;;7.88;;
8831;SDS011;4452;50.756;4.472;2023-05-18T04:34:28;18.45;;;7.53;;
8831;SDS011;4452;50.756;4.472;2023-05-18T04:36:55;15.25;;;7.50;;
8831;SDS011;4452;50.756;4.472;2023-05-18T04:39:24;13.35;;;7.60;;
8831;SDS011;4452;50.756;4.472;2023-05-18T04:41:51;18.40;;;8.07;;
8831;SDS011;4452;50.756;4.472;2023-05-18T04:44:22;15.27;;;6.68;;
8831;SDS011;4452;50.756;4.472;2023-05-18T04:46:52;21.40;;;7.53;;
8831;SDS011;4452;50.756;4.472;2023-05-18T04:49:18;17.27;;;7.35;;
8831;SDS011;4452;50.756;4.472;2023-05-18T04:51:51;19.70;;;7.10;;
8831;SDS011;4452;50.756;4.472;2023-05-18T04:54:26;15.02;;;7.28;;
8831;SDS011;4452;50.756;4.472;2023-05-18T04:56:54;22.45;;;7.43;;
8831;SDS011;4452;50.756;4.472;2023-05-18T04:59:21;24.75;;;8.15;;
8831;SDS011;4452;50.756;4.472;2023-05-18T05:01:54;18.55;;;7.53;;
8831;SDS011;4452;50.756;4.472;2023-05-18T05:04:20;21.05;;;7.25;;
8831;SDS011;4452;50.756;4.472;2023-05-18T05:06:46;29.63;;;7.68;;
8831;SDS011;4452;50.756;4.472;2023-05-18T05:09:12;15.00;;;7.20;;
8831;SDS011;4452;50.756;4.472;2023-05-18T05:11:38;18.83;;;7.68;;
8831;SDS011;4452;50.756;4.472;2023-05-18T05:14:05;13.82;;;8.38;;
8831;SDS011;4452;50.756;4.472;2023-05-18T05:16:31;18.80;;;8.02;;
8831;SDS011;4452;50.756;4.472;2023-05-18T05:18:56;18.48;;;7.75;;
8831;SDS011;4452;50.756;4.472;2023-05-18T05:21:22;17.67;;;7.90;;
8831;SDS011;4452;50.756;4.472;2023-05-18T05:23:48;13.32;;;7.80;;
8831;SDS011;4452;50.756;4.472;2023-05-18T05:26:14;17.65;;;7.70;;
8831;SDS011;4452;50.756;4.472;2023-05-18T05:28:39;23.45;;;9.88;;
8831;SDS011;4452;50.756;4.472;2023-05-18T05:31:05;18.30;;;8.18;;
8831;SDS011;4452;50.756;4.472;2023-05-18T05:33:31;13.30;;;7.78;;
8831;SDS011;4452;50.756;4.472;2023-05-18T05:35:57;14.35;;;7.32;;
8831;SDS011;4452;50.756;4.472;2023-05-18T05:38:23;12.32;;;7.70;;
8831;SDS011;4452;50.756;4.472;2023-05-18T05:40:48;26.35;;;7.70;;
8831;SDS011;4452;50.756;4.472;2023-05-18T05:43:14;20.58;;;7.10;;
8831;SDS011;4452;50.756;4.472;2023-05-18T05:45:40;18.63;;;8.18;;
8831;SDS011;4452;50.756;4.472;2023-05-18T05:48:07;14.88;;;7.30;;
8831;SDS011;4452;50.756;4.472;2023-05-18T05:50:33;23.38;;;7.85;;
8831;SDS011;4452;50.756;4.472;2023-05-18T05:52:59;15.63;;;6.85;;
8831;SDS011;4452;50.756;4.472;2023-05-18T05:55:25;18.58;;;7.95;;
8831;SDS011;4452;50.756;4.472;2023-05-18T05:57:51;20.40;;;7.60;;
8831;SDS011;4452;50.756;4.472;2023-05-18T06:00:17;24.67;;;8.98;;
8831;SDS011;4452;50.756;4.472;2023-05-18T06:02:43;22.63;;;8.07;;
8831;SDS011;4452;50.756;4.472;2023-05-18T06:05:09;13.80;;;7.22;;
8831;SDS011;4452;50.756;4.472;2023-05-18T06:07:34;15.20;;;7.47;;
8831;SDS011;4452;50.756;4.472;2023-05-18T06:10:01;24.55;;;8.50;;
8831;SDS011;4452;50.756;4.472;2023-05-18T06:12:27;19.45;;;7.53;;
8831;SDS011;4452;50.756;4.472;2023-05-18T06:14:53;21.02;;;6.97;;
8831;SDS011;4452;50.756;4.472;2023-05-18T06:17:26;15.88;;;7.10;;
8831;SDS011;4452;50.756;4.472;2023-05-18T06:19:53;18.58;;;7.78;;
8831;SDS011;4452;50.756;4.472;2023-05-18T06:22:22;18.02;;;6.93;;
8831;SDS011;4452;50.756;4.472;2023-05-18T06:24:50;15.43;;;7.07;;
8831;SDS011;4452;50.756;4.472;2023-05-18T06:27:16;19.92;;;7.40;;
8831;SDS011;4452;50.756;4.472;2023-05-18T06:29:43;16.10;;;7.53;;
8831;SDS011;4452;50.756;4.472;2023-05-18T06:32:11;18.65;;;7.53;;
8831;SDS011;4452;50.756;4.472;2023-05-18T06:34:37;19.40;;;7.40;;
8831;SDS011;4452;50.756;4.472;2023-05-18T06:37:03;16.55;;;7.68;;
8831;SDS011;4452;50.756;4.472;2023-05-18T06:39:29;19.75;;;8.55;;
8831;SDS011;4452;50.756;4.472;2023-05-18T06:41:55;19.20;;;8.10;;
8831;SDS011;4452;50.756;4.472;2023-05-18T06:44:21;19.38;;;6.93;;
8831;SDS011;4452;50.756;4.472;2023-05-18T06:46:46;18.27;;;6.93;;
8831;SDS011;4452;50.756;4.472;2023-05-18T06:49:13;19.45;;;7.25;;
8831;SDS011;4452;50.756;4.472;2023-05-18T06:51:40;20.98;;;7.78;;
8831;SDS011;4452;50.756;4.472;2023-05-18T06:54:07;18.08;;;7.43;;
8831;SDS011;4452;50.756;4.472;2023-05-18T06:56:33;21.20;;;7.45;;
8831;SDS011;4452;50.756;4.472;2023-05-18T06:58:59;14.48;;;7.05;;
8831;SDS011;4452;50.756;4.472;2023-05-18T07:01:25;13.70;;;7.00;;
8831;SDS011;4452;50.756;4.472;2023-05-18T07:03:50;16.75;;;8.18;;
8831;SDS011;4452;50.756;4.472;2023-05-18T07:06:17;17.45;;;7.78;;
8831;SDS011;4452;50.756;4.472;2023-05-18T07:08:45;14.85;;;7.22;;
8831;SDS011;4452;50.756;4.472;2023-05-18T07:11:17;20.35;;;7.80;;
8831;SDS011;4452;50.756;4.472;2023-05-18T07:13:46;13.32;;;7.25;;
8831;SDS011;4452;50.756;4.472;2023-05-18T07:16:14;17.50;;;7.90;;
8831;SDS011;4452;50.756;4.472;2023-05-18T07:18:43;19.75;;;8.65;;
8831;SDS011;4452;50.756;4.472;2023-05-18T07:21:10;13.63;;;7.38;;
8831;SDS011;4452;50.756;4.472;2023-05-18T07:23:36;14.32;;;7.18;;
8831;SDS011;4452;50.756;4.472;2023-05-18T07:26:02;28.48;;;7.63;;
8831;SDS011;4452;50.756;4.472;2023-05-18T07:28:28;18.10;;;8.75;;
8831;SDS011;4452;50.756;4.472;2023-05-18T07:30:53;17.00;;;7.82;;
8831;SDS011;4452;50.756;4.472;2023-05-18T07:33:19;15.10;;;7.65;;
8831;SDS011;4452;50.756;4.472;2023-05-18T07:35:45;19.30;;;7.70;;
8831;SDS011;4452;50.756;4.472;2023-05-18T07:38:11;17.42;;;6.88;;
8831;SDS011;4452;50.756;4.472;2023-05-18T07:40:36;18.20;;;7.40;;
8831;SDS011;4452;50.756;4.472;2023-05-18T07:43:02;16.73;;;7.55;;
8831;SDS011;4452;50.756;4.472;2023-05-18T07:45:28;17.83;;;7.13;;
8831;SDS011;4452;50.756;4.472;2023-05-18T07:47:54;20.85;;;6.88;;
8831;SDS011;4452;50.756;4.472;2023-05-18T07:50:19;15.95;;;7.13;;
8831;SDS011;4452;50.756;4.472;2023-05-18T07:52:45;19.85;;;7.40;;
8831;SDS011;4452;50.756;4.472;2023-05-18T07:55:11;13.07;;;6.35;;
8831;SDS011;4452;50.756;4.472;2023-05-18T07:57:38;16.98;;;6.90;;
8831;SDS011;4452;50.756;4.472;2023-05-18T08:00:04;17.20;;;7.07;;
8831;SDS011;4452;50.756;4.472;2023-05-18T08:02:33;18.30;;;6.80;;
8831;SDS011;4452;50.756;4.472;2023-05-18T08:04:59;17.58;;;6.70;;
8831;SDS011;4452;50.756;4.472;2023-05-18T08:07:26;23.10;;;7.22;;
8831;SDS011;4452;50.756;4.472;2023-05-18T08:09:54;16.90;;;7.22;;
8831;SDS011;4452;50.756;4.472;2023-05-18T08:12:21;18.33;;;7.70;;
8831;SDS011;4452;50.756;4.472;2023-05-18T08:14:47;17.67;;;7.22;;
8831;SDS011;4452;50.756;4.472;2023-05-18T08:17:13;17.95;;;7.30;;
8831;SDS011;4452;50.756;4.472;2023-05-18T08:19:38;13.45;;;7.55;;
8831;SDS011;4452;50.756;4.472;2023-05-18T08:22:04;17.08;;;7.38;;
8831;SDS011;4452;50.756;4.472;2023-05-18T08:24:30;20.40;;;6.55;;
8831;SDS011;4452;50.756;4.472;2023-05-18T08:26:56;17.10;;;6.47;;
8831;SDS011;4452;50.756;4.472;2023-05-18T08:29:21;15.32;;;6.75;;
8831;SDS011;4452;50.756;4.472;2023-05-18T08:31:47;16.48;;;6.65;;
8831;SDS011;4452;50.756;4.472;2023-05-18T08:34:13;23.85;;;7.82;;
8831;SDS011;4452;50.756;4.472;2023-05-18T08:36:38;15.48;;;6.43;;
8831;SDS011;4452;50.756;4.472;2023-05-18T08:39:06;12.93;;;6.10;;
8831;SDS011;4452;50.756;4.472;2023-05-18T08:44:05;19.58;;;7.50;;
8831;SDS011;4452;50.756;4.472;2023-05-18T08:46:41;16.10;;;6.40;;
8831;SDS011;4452;50.756;4.472;2023-05-18T08:49:19;16.90;;;6.60;;
8831;SDS011;4452;50.756;4.472;2023-05-18T08:51:54;22.95;;;5.72;;
8831;SDS011;4452;50.756;4.472;2023-05-18T08:54:23;13.57;;;6.28;;
8831;SDS011;4452;50.756;4.472;2023-05-18T08:56:49;11.57;;;5.55;;
8831;SDS011;4452;50.756;4.472;2023-05-18T08:59:26;16.00;;;6.28;;
8831;SDS011;4452;50.756;4.472;2023-05-18T09:01:55;15.73;;;7.10;;
8831;SDS011;4452;50.756;4.472;2023-05-18T09:04:21;14.88;;;6.10;;
8831;SDS011;4452;50.756;4.472;2023-05-18T09:06:47;9.68;;;5.88;;
8831;SDS011;4452;50.756;4.472;2023-05-18T09:09:14;19.90;;;5.80;;
8831;SDS011;4452;50.756;4.472;2023-05-18T09:11:40;13.23;;;5.85;;
8831;SDS011;4452;50.756;4.472;2023-05-18T09:14:06;14.23;;;4.97;;
8831;SDS011;4452;50.756;4.472;2023-05-18T09:16:32;10.20;;;4.80;;
8831;SDS011;4452;50.756;4.472;2023-05-18T09:18:58;12.95;;;5.95;;
8831;SDS011;4452;50.756;4.472;2023-05-18T09:21:24;11.25;;;5.47;;
8831;SDS011;4452;50.756;4.472;2023-05-18T09:23:50;10.90;;;5.25;;
8831;SDS011;4452;50.756;4.472;2023-05-18T09:26:17;13.25;;;5.40;;
8831;SDS011;4452;50.756;4.472;2023-05-18T09:28:44;18.05;;;5.20;;
8831;SDS011;4452;50.756;4.472;2023-05-18T09:31:15;14.93;;;5.78;;
8831;SDS011;4452;50.756;4.472;2023-05-18T09:33:42;12.63;;;5.07;;
8831;SDS011;4452;50.756;4.472;2023-05-18T09:36:09;16.23;;;5.55;;
8831;SDS011;4452;50.756;4.472;2023-05-18T09:38:42;14.07;;;5.75;;
8831;SDS011;4452;50.756;4.472;2023-05-18T09:41:13;21.73;;;5.55;;
8831;SDS011;4452;50.756;4.472;2023-05-18T09:43:41;17.63;;;5.30;;
8831;SDS011;4452;50.756;4.472;2023-05-18T09:46:11;11.77;;;5.13;;
8831;SDS011;4452;50.756;4.472;2023-05-18T09:48:41;16.58;;;6.03;;
8831;SDS011;4452;50.756;4.472;2023-05-18T09:51:11;7.10;;;4.32;;
8831;SDS011;4452;50.756;4.472;2023-05-18T09:53:40;10.48;;;5.30;;
8831;SDS011;4452;50.756;4.472;2023-05-18T09:56:07;12.93;;;4.82;;
8831;SDS011;4452;50.756;4.472;2023-05-18T09:58:38;11.30;;;5.43;;
8831;SDS011;4452;50.756;4.472;2023-05-18T10:01:05;13.38;;;5.97;;
8831;SDS011;4452;50.756;4.472;2023-05-18T10:03:32;17.80;;;6.95;;
8831;SDS011;4452;50.756;4.472;2023-05-18T10:06:08;12.60;;;6.85;;
8831;SDS011;4452;50.756;4.472;2023-05-18T10:08:35;15.85;;;6.85;;
8831;SDS011;4452;50.756;4.472;2023-05-18T10:11:01;18.25;;;6.75;;
8831;SDS011;4452;50.756;4.472;2023-05-18T10:13:28;12.57;;;6.90;;
8831;SDS011;4452;50.756;4.472;2023-05-18T10:15:57;14.57;;;7.10;;
8831;SDS011;4452;50.756;4.472;2023-05-18T10:18:28;17.90;;;7.28;;
8831;SDS011;4452;50.756;4.472;2023-05-18T10:20:55;15.73;;;8.15;;
8831;SDS011;4452;50.756;4.472;2023-05-18T10:23:23;14.30;;;7.20;;
8831;SDS011;4452;50.756;4.472;2023-05-18T10:25:50;23.70;;;8.63;;
8831;SDS011;4452;50.756;4.472;2023-05-18T10:28:17;14.43;;;6.68;;
8831;SDS011;4452;50.756;4.472;2023-05-18T10:30:55;15.98;;;6.88;;
8831;SDS011;4452;50.756;4.472;2023-05-18T10:33:23;15.02;;;7.43;;
8831;SDS011;4452;50.756;4.472;2023-05-18T10:35:50;16.02;;;6.82;;
8831;SDS011;4452;50.756;4.472;2023-05-18T10:38:23;11.13;;;6.60;;
8831;SDS011;4452;50.756;4.472;2023-05-18T10:40:54;16.50;;;7.55;;
8831;SDS011;4452;50.756;4.472;2023-05-18T10:43:23;14.90;;;7.20;;
8831;SDS011;4452;50.756;4.472;2023-05-18T10:45:52;10.35;;;6.22;;
8831;SDS011;4452;50.756;4.472;2023-05-18T10:48:21;13.07;;;6.22;;
8831;SDS011;4452;50.756;4.472;2023-05-18T10:50:49;10.43;;;6.07;;
8831;SDS011;4452;50.756;4.472;2023-05-18T10:53:19;9.68;;;5.53;;
8831;SDS011;4452;50.756;4.472;2023-05-18T10:55:47;8.85;;;5.10;;
8831;SDS011;4452;50.756;4.472;2023-05-18T10:58:14;17.77;;;5.50;;
8831;SDS011;4452;50.756;4.472;2023-05-18T11:00:47;12.50;;;6.95;;
8831;SDS011;4452;50.756;4.472;2023-05-18T11:03:16;15.75;;;5.50;;
8831;SDS011;4452;50.756;4.472;2023-05-18T11:05:47;12.88;;;5.63;;
8831;SDS011;4452;50.756;4.472;2023-05-18T11:08:41;8.25;;;5.25;;
8831;SDS011;4452;50.756;4.472;2023-05-18T11:11:09;9.50;;;4.63;;
8831;SDS011;4452;50.756;4.472;2023-05-18T11:13:36;12.13;;;5.18;;
8831;SDS011;4452;50.756;4.472;2023-05-18T11:16:07;11.23;;;4.70;;
8831;SDS011;4452;50.756;4.472;2023-05-18T11:21:50;10.50;;;5.13;;
8831;SDS011;4452;50.756;4.472;2023-05-18T11:24:12;14.23;;;5.60;;
8831;SDS011;4452;50.756;4.472;2023-05-18T11:26:46;11.50;;;5.60;;
8831;SDS011;4452;50.756;4.472;2023-05-18T11:29:21;13.05;;;5.18;;
8831;SDS011;4452;50.756;4.472;2023-05-18T11:31:52;13.43;;;5.72;;
8831;SDS011;4452;50.756;4.472;2023-05-18T11:37:11;14.30;;;5.28;;
8831;SDS011;4452;50.756;4.472;2023-05-18T11:39:37;12.93;;;5.55;;
8831;SDS011;4452;50.756;4.472;2023-05-18T11:44:31;11.05;;;5.18;;
8831;SDS011;4452;50.756;4.472;2023-05-18T11:49:24;10.43;;;4.78;;
8831;SDS011;4452;50.756;4.472;2023-05-18T11:54:28;6.15;;;4.10;;
8831;SDS011;4452;50.756;4.472;2023-05-18T11:56:59;6.25;;;4.50;;
8831;SDS011;4452;50.756;4.472;2023-05-18T11:59:29;9.13;;;4.82;;
8831;SDS011;4452;50.756;4.472;2023-05-18T12:01:56;12.32;;;5.45;;
8831;SDS011;4452;50.756;4.472;2023-05-18T12:04:23;19.38;;;5.00;;
8831;SDS011;4452;50.756;4.472;2023-05-18T12:06:51;11.63;;;4.88;;
8831;SDS011;4452;50.756;4.472;2023-05-18T12:09:17;19.85;;;6.10;;
8831;SDS011;4452;50.756;4.472;2023-05-18T12:11:43;15.70;;;6.18;;
8831;SDS011;4452;50.756;4.472;2023-05-18T12:14:10;11.43;;;5.38;;
8831;SDS011;4452;50.756;4.472;2023-05-18T12:16:38;11.20;;;5.55;;
8831;SDS011;4452;50.756;4.472;2023-05-18T12:19:07;17.55;;;6.95;;
8831;SDS011;4452;50.756;4.472;2023-05-18T12:21:36;11.18;;;5.43;;
8831;SDS011;4452;50.756;4.472;2023-05-18T12:24:02;9.93;;;5.55;;
8831;SDS011;4452;50.756;4.472;2023-05-18T12:26:28;12.00;;;5.50;;
8831;SDS011;4452;50.756;4.472;2023-05-18T12:28:56;13.30;;;5.80;;
8831;SDS011;4452;50.756;4.472;2023-05-18T12:31:24;14.80;;;5.80;;
8831;SDS011;4452;50.756;4.472;2023-05-18T12:33:50;10.75;;;5.18;;
8831;SDS011;4452;50.756;4.472;2023-05-18T12:36:19;10.70;;;5.65;;
8831;SDS011;4452;50.756;4.472;2023-05-18T12:38:50;11.38;;;5.40;;
8831;SDS011;4452;50.756;4.472;2023-05-18T12:41:25;11.20;;;6.50;;
8831;SDS011;4452;50.756;4.472;2023-05-18T12:43:51;15.02;;;5.47;;
8831;SDS011;4452;50.756;4.472;2023-05-18T12:46:22;13.80;;;6.05;;
8831;SDS011;4452;50.756;4.472;2023-05-18T12:48:57;11.68;;;5.43;;
8831;SDS011;4452;50.756;4.472;2023-05-18T12:51:35;11.50;;;5.70;;
8831;SDS011;4452;50.756;4.472;2023-05-18T12:54:02;12.10;;;6.18;;
8831;SDS011;4452;50.756;4.472;2023-05-18T12:59:34;11.85;;;5.43;;
8831;SDS011;4452;50.756;4.472;2023-05-18T13:01:59;11.95;;;5.32;;
8831;SDS011;4452;50.756;4.472;2023-05-18T13:04:32;9.55;;;5.97;;
8831;SDS011;4452;50.756;4.472;2023-05-18T13:06:59;10.15;;;5.57;;
8831;SDS011;4452;50.756;4.472;2023-05-18T13:09:25;11.73;;;6.40;;
8831;SDS011;4452;50.756;4.472;2023-05-18T13:11:51;10.20;;;5.90;;
8831;SDS011;4452;50.756;4.472;2023-05-18T13:14:20;14.27;;;7.22;;
8831;SDS011;4452;50.756;4.472;2023-05-18T13:16:48;11.10;;;6.53;;
8831;SDS011;4452;50.756;4.472;2023-05-18T13:19:16;16.70;;;6.50;;
8831;SDS011;4452;50.756;4.472;2023-05-18T13:21:45;14.15;;;6.07;;
8831;SDS011;4452;50.756;4.472;2023-05-18T13:24:19;10.70;;;6.70;;
8831;SDS011;4452;50.756;4.472;2023-05-18T13:26:45;11.50;;;5.95;;
8831;SDS011;4452;50.756;4.472;2023-05-18T13:29:10;8.27;;;5.80;;
8831;SDS011;4452;50.756;4.472;2023-05-18T13:31:37;10.30;;;6.30;;
8831;SDS011;4452;50.756;4.472;2023-05-18T13:34:02;9.77;;;5.90;;
8831;SDS011;4452;50.756;4.472;2023-05-18T13:36:28;11.52;;;6.65;;
8831;SDS011;4452;50.756;4.472;2023-05-18T13:38:56;12.35;;;6.20;;
8831;SDS011;4452;50.756;4.472;2023-05-18T13:41:22;13.57;;;6.97;;
8831;SDS011;4452;50.756;4.472;2023-05-18T13:43:48;12.98;;;6.13;;
8831;SDS011;4452;50.756;4.472;2023-05-18T13:46:13;14.23;;;6.20;;
8831;SDS011;4452;50.756;4.472;2023-05-18T13:48:39;14.70;;;6.13;;
8831;SDS011;4452;50.756;4.472;2023-05-18T13:51:05;9.40;;;5.82;;
8831;SDS011;4452;50.756;4.472;2023-05-18T13:53:30;10.15;;;6.03;;
8831;SDS011;4452;50.756;4.472;2023-05-18T13:55:56;12.07;;;6.35;;
8831;SDS011;4452;50.756;4.472;2023-05-18T13:58:22;12.90;;;6.95;;
8831;SDS011;4452;50.756;4.472;2023-05-18T14:00:47;11.15;;;6.88;;
8831;SDS011;4452;50.756;4.472;2023-05-18T14:03:13;10.05;;;6.30;;
8831;SDS011;4452;50.756;4.472;2023-05-18T14:05:39;17.35;;;6.93;;
8831;SDS011;4452;50.756;4.472;2023-05-18T14:08:05;12.10;;;6.80;;
8831;SDS011;4452;50.756;4.472;2023-05-18T14:10:30;12.70;;;7.07;;
8831;SDS011;4452;50.756;4.472;2023-05-18T14:12:56;13.77;;;6.75;;
8831;SDS011;4452;50.756;4.472;2023-05-18T14:15:22;16.10;;;6.65;;
8831;SDS011;4452;50.756;4.472;2023-05-18T14:17:47;12.32;;;6.35;;
8831;SDS011;4452;50.756;4.472;2023-05-18T14:20:13;12.82;;;5.88;;
8831;SDS011;4452;50.756;4.472;2023-05-18T14:22:39;13.90;;;5.75;;
8831;SDS011;4452;50.756;4.472;2023-05-18T14:25:05;14.60;;;6.60;;
8831;SDS011;4452;50.756;4.472;2023-05-18T14:27:32;19.73;;;6.93;;
8831;SDS011;4452;50.756;4.472;2023-05-18T14:29:57;16.20;;;6.63;;
8831;SDS011;4452;50.756;4.472;2023-05-18T14:32:23;15.27;;;5.90;;
8831;SDS011;4452;50.756;4.472;2023-05-18T14:34:49;13.48;;;6.32;;
8831;SDS011;4452;50.756;4.472;2023-05-18T14:37:16;16.92;;;6.20;;
8831;SDS011;4452;50.756;4.472;2023-05-18T14:39:42;12.35;;;6.00;;
8831;SDS011;4452;50.756;4.472;2023-05-18T14:42:08;11.93;;;5.90;;
8831;SDS011;4452;50.756;4.472;2023-05-18T14:44:34;19.77;;;6.00;;
8831;SDS011;4452;50.756;4.472;2023-05-18T14:46:59;13.68;;;5.47;;
8831;SDS011;4452;50.756;4.472;2023-05-18T14:49:25;13.15;;;5.45;;
8831;SDS011;4452;50.756;4.472;2023-05-18T14:51:51;15.85;;;5.40;;
8831;SDS011;4452;50.756;4.472;2023-05-18T14:54:17;9.73;;;5.05;;
8831;SDS011;4452;50.756;4.472;2023-05-18T14:56:43;10.55;;;5.35;;
8831;SDS011;4452;50.756;4.472;2023-05-18T14:59:09;7.72;;;4.65;;
8831;SDS011;4452;50.756;4.472;2023-05-18T15:01:34;9.23;;;4.57;;
8831;SDS011;4452;50.756;4.472;2023-05-18T15:04:00;11.07;;;5.88;;
8831;SDS011;4452;50.756;4.472;2023-05-18T15:06:26;11.57;;;5.60;;
8831;SDS011;4452;50.756;4.472;2023-05-18T15:08:52;13.32;;;5.30;;
8831;SDS011;4452;50.756;4.472;2023-05-18T15:11:19;9.95;;;5.35;;
8831;SDS011;4452;50.756;4.472;2023-05-18T15:13:46;9.80;;;5.38;;
8831;SDS011;4452;50.756;4.472;2023-05-18T15:16:13;9.43;;;4.72;;
8831;SDS011;4452;50.756;4.472;2023-05-18T15:18:40;12.52;;;4.88;;
8831;SDS011;4452;50.756;4.472;2023-05-18T15:21:05;17.05;;;5.30;;
8831;SDS011;4452;50.756;4.472;2023-05-18T15:23:31;11.15;;;4.80;;
8831;SDS011;4452;50.756;4.472;2023-05-18T15:25:57;14.32;;;5.20;;
8831;SDS011;4452;50.756;4.472;2023-05-18T15:28:23;8.57;;;4.80;;
8831;SDS011;4452;50.756;4.472;2023-05-18T15:30:49;12.60;;;5.10;;